Pagrindinis puslapis
METAR-TAF:

METAR-TAF

Oro uostai :

Tirupati, Indija

platuma: 13-38-16N, ilguma: 79-32-50E, Aukštis: 107 m

Dabartinis oras

Ataskaita buvo paskelbta 1 valandą ir 30 minutes, ne 00:00 UTC
Ramus vėjas
Temperatūra 30°C
Drėgmė 70%
Slėgis 1006 hPa
Matomumas: 6000 m
Mažai debesys ne aukštis 2000 ft

METAR: VOTP 050000Z 00000KT 6000 FEW020 30/24 Q1006

Laikas: 07:00 (01:30 UTC)

Prognozė

Ataskaita buvo paskelbta 2 valandos ir 30 minutes, ne 23:00 UTC
Prognozė galioja nuo 05 metu 00 UTC su 05 metu 09 UTC
Vėjas 6 kt iš Pietų/Pietvakarių
Matomumas: 5000 m
Išsisklaidę debesys ne aukštis 2000 ft
migla
Tapsmas
nuo 05 metu 03 UTC su 05 metu 05 UTC
Vėjas 10 kt iš Pietvakarių
Matomumas: 6000 m
Išsisklaidę debesys ne aukštis 2000 ft
Išsisklaidę debesys ne aukštis 2500 ft

TAF: VOTP 042300Z 0500/0509 20006KT 5000 HZ SCT020 BECMG 0503/0505 23010KT 6000 SCT020 SCT025

Orai ataskaitas ir orų prognozės (METAR, TAF).

turimą stotys yra geltonos ir raudonos taškus žemėlapyje.

Perkelti pele per norėdami pamatyti stoties vardą.

Tada spustelėkite, norėdami matyti oro stebėjimo ir prognozės.

Norėdami pakeisti žemėlapį: spustelėkite ant žalios mygtukų su juodo kryžiaus žemyn,; žalią mygtuką su brūkšneliu, jei norite nutolinti; arba žalių rodyklių gretimoms žemėlapius.


METAR-TAF: